createdAt,value
2022-11-20T00:02:42.474Z,100343.22
2022-11-20T00:05:48.425Z,100340.66
2022-11-20T00:08:55.462Z,100342.34
2022-11-20T00:11:58.495Z,100332.22
2022-11-20T00:15:01.678Z,100335.53
2022-11-20T00:18:06.495Z,100337.13
2022-11-20T00:21:15.479Z,100341.56
2022-11-20T00:24:18.944Z,100340.75
2022-11-20T00:27:22.276Z,100344.22
2022-11-20T00:30:25.525Z,100342.63
2022-11-20T00:33:29.630Z,100344.22
2022-11-20T00:36:36.720Z,100350.22
2022-11-20T00:39:39.860Z,100346.81
2022-11-20T00:42:44.681Z,100351.00
2022-11-20T00:45:47.866Z,100349.31
2022-11-20T00:48:52.302Z,100348.34
2022-11-20T00:51:56.655Z,100345.03
2022-11-20T00:54:59.691Z,100351.13
2022-11-20T00:58:04.625Z,100343.38
2022-11-20T01:01:11.479Z,100350.16
2022-11-20T01:04:16.831Z,100345.19
2022-11-20T01:07:21.125Z,100345.25
2022-11-20T01:10:24.304Z,100354.56
2022-11-20T01:13:40.502Z,100354.38
2022-11-20T01:16:46.597Z,100346.63
2022-11-20T01:19:51.601Z,100352.69
2022-11-20T01:22:55.931Z,100351.31
2022-11-20T01:26:03.512Z,100351.53
2022-11-20T01:29:07.872Z,100340.97
2022-11-20T01:32:12.528Z,100336.75
2022-11-20T01:35:16.054Z,100339.09
2022-11-20T01:38:23.488Z,100352.88
2022-11-20T01:41:54.020Z,100353.69
2022-11-20T01:45:00.501Z,100342.25
2022-11-20T01:48:03.571Z,100343.06
2022-11-20T01:51:10.105Z,100345.66
2022-11-20T01:54:21.745Z,100341.50
2022-11-20T01:57:29.334Z,100348.44
2022-11-20T02:00:33.098Z,100346.00
2022-11-20T02:03:39.136Z,100343.50
2022-11-20T02:06:46.743Z,100343.28
2022-11-20T02:09:58.543Z,100339.84
2022-11-20T02:13:19.823Z,100339.28
2022-11-20T02:16:27.438Z,100336.47
2022-11-20T02:19:33.257Z,100329.69
2022-11-20T02:22:46.969Z,100331.00
2022-11-20T02:25:53.346Z,100345.75
2022-11-20T02:28:56.980Z,100342.34
2022-11-20T02:32:04.852Z,100331.22
2022-11-20T02:35:10.739Z,100333.78
2022-11-20T02:38:15.070Z,100335.44
2022-11-20T02:41:19.992Z,100332.88
2022-11-20T02:44:25.829Z,100335.69
2022-11-20T02:47:31.759Z,100348.44
2022-11-20T02:50:34.851Z,100341.53
2022-11-20T02:53:37.870Z,100336.56
2022-11-20T02:56:45.224Z,100341.66
2022-11-20T02:59:48.430Z,100340.00
2022-11-20T03:02:53.818Z,100343.19
2022-11-20T03:06:00.715Z,100347.38
2022-11-20T03:09:04.326Z,100341.78
2022-11-20T03:12:09.338Z,100341.88
2022-11-20T03:15:15.448Z,100345.13
2022-11-20T03:18:21.617Z,100345.31
2022-11-20T03:21:25.671Z,100336.88
2022-11-20T03:24:29.051Z,100345.53
2022-11-20T03:27:38.032Z,100335.97
2022-11-20T03:30:41.266Z,100328.31
2022-11-20T03:33:48.478Z,100336.81
2022-11-20T03:36:52.398Z,100345.59
2022-11-20T03:39:55.415Z,100343.84
2022-11-20T03:43:00.137Z,100339.44
2022-11-20T03:46:03.761Z,100342.00
2022-11-20T03:49:06.846Z,100344.75
2022-11-20T03:52:09.879Z,100339.66
2022-11-20T03:55:18.140Z,100343.72
2022-11-20T03:58:25.219Z,100346.06
2022-11-20T04:01:38.106Z,100335.50
2022-11-20T04:04:41.389Z,100339.94
2022-11-20T04:07:44.693Z,100337.50
2022-11-20T04:10:50.805Z,100336.56
2022-11-20T04:13:59.216Z,100339.44
2022-11-20T04:17:02.265Z,100339.31
2022-11-20T04:20:09.413Z,100338.41
2022-11-20T04:23:12.378Z,100342.28
2022-11-20T04:26:17.994Z,100350.84
2022-11-20T04:29:22.598Z,100350.09
2022-11-20T04:32:26.405Z,100349.00
2022-11-20T04:35:29.681Z,100355.97
2022-11-20T04:38:32.950Z,100352.50
2022-11-20T04:41:38.167Z,100348.84
2022-11-20T04:44:42.977Z,100344.56
2022-11-20T04:47:45.925Z,100342.28
2022-11-20T04:50:49.078Z,100335.50
2022-11-20T04:53:52.257Z,100336.19
2022-11-20T04:56:55.221Z,100340.59
2022-11-20T04:59:59.664Z,100338.13
2022-11-20T05:03:03.192Z,100338.94
2022-11-20T05:06:08.159Z,100332.25
2022-11-20T05:09:11.371Z,100334.03
2022-11-20T05:12:14.381Z,100332.31
2022-11-20T05:15:18.747Z,100319.66
2022-11-20T05:18:21.904Z,100320.41
2022-11-20T05:21:25.222Z,100312.66
2022-11-20T05:24:28.227Z,100315.22
2022-11-20T05:27:31.190Z,100314.19
2022-11-20T05:30:35.502Z,100308.94
2022-11-20T05:33:38.846Z,100311.50
2022-11-20T05:36:43.649Z,100313.03
2022-11-20T05:39:49.304Z,100312.34
2022-11-20T05:42:52.256Z,100315.56
2022-11-20T05:45:56.942Z,100307.91
2022-11-20T05:49:00.305Z,100310.47
2022-11-20T05:52:03.359Z,100304.28
2022-11-20T05:55:07.681Z,100310.38
2022-11-20T05:58:12.915Z,100305.97
2022-11-20T06:01:20.703Z,100309.28
2022-11-20T06:04:23.768Z,100300.94
2022-11-20T06:07:26.841Z,100300.03
2022-11-20T06:10:29.864Z,100295.72
2022-11-20T06:13:33.163Z,100298.00
2022-11-20T06:16:37.940Z,100300.94
2022-11-20T06:19:41.410Z,100301.13
2022-11-20T06:22:47.033Z,100294.16
2022-11-20T06:25:50.012Z,100298.50
2022-11-20T06:28:53.931Z,100302.91
2022-11-20T06:31:58.312Z,100298.69
2022-11-20T06:35:02.640Z,100301.19
2022-11-20T06:38:05.609Z,100310.59
2022-11-20T06:41:12.726Z,100308.94
2022-11-20T06:44:15.739Z,100302.81
2022-11-20T06:47:20.016Z,100307.91
2022-11-20T06:50:23.380Z,100294.97
2022-11-20T06:53:26.860Z,100295.78
2022-11-20T06:56:32.968Z,100297.47
2022-11-20T06:59:35.944Z,100298.34
2022-11-20T07:02:40.566Z,100297.47
2022-11-20T07:05:43.598Z,100302.66
2022-11-20T07:08:47.984Z,100300.84
2022-11-20T07:11:51.081Z,100300.84
2022-11-20T07:14:54.055Z,100293.94
2022-11-20T07:18:01.039Z,100300.03
2022-11-20T07:21:05.025Z,100294.16
2022-11-20T07:24:08.306Z,100301.81
2022-11-20T07:27:11.536Z,100309.41
2022-11-20T07:30:16.182Z,100300.09
2022-11-20T07:33:20.594Z,100306.25
2022-11-20T07:36:23.615Z,100303.59
2022-11-20T07:39:26.635Z,100306.84
2022-11-20T07:42:29.644Z,100304.22
2022-11-20T07:45:32.967Z,100300.94
2022-11-20T07:48:37.275Z,100301.25
2022-11-20T07:51:40.409Z,100302.78
2022-11-20T07:54:46.438Z,100296.50
2022-11-20T07:57:56.942Z,100300.72
2022-11-20T08:01:00.283Z,100304.38
2022-11-20T08:04:04.718Z,100294.88
2022-11-20T08:07:07.752Z,100300.00
2022-11-20T08:10:16.902Z,100299.19
2022-11-20T08:13:37.915Z,100297.59
2022-11-20T08:16:41.259Z,100294.16
2022-11-20T08:19:45.674Z,100294.69
2022-11-20T08:22:48.637Z,100297.09
2022-11-20T08:25:52.714Z,100296.13
2022-11-20T08:28:57.154Z,100297.78
2022-11-20T08:32:00.489Z,100296.97
2022-11-20T08:35:05.297Z,100291.75
2022-11-20T08:38:08.790Z,100295.78
2022-11-20T08:41:27.872Z,100287.16
2022-11-20T08:44:30.859Z,100291.34
2022-11-20T08:47:33.809Z,100295.56
2022-11-20T08:50:38.114Z,100291.63
2022-11-20T08:53:42.170Z,100280.31
2022-11-20T08:56:45.162Z,100280.13
2022-11-20T09:00:05.636Z,100273.25
2022-11-20T09:03:09.574Z,100274.78
2022-11-20T09:06:14.714Z,100273.63
2022-11-20T09:09:17.708Z,100282.16
2022-11-20T09:12:20.750Z,100279.31
2022-11-20T09:15:25.077Z,100294.44
2022-11-20T09:18:29.830Z,100289.47
2022-11-20T09:21:34.287Z,100285.91
2022-11-20T09:24:37.267Z,100303.03
2022-11-20T09:27:42.370Z,100305.13
2022-11-20T09:30:45.550Z,100306.69
2022-11-20T09:33:48.721Z,100302.94
2022-11-20T09:36:53.044Z,100300.38
2022-11-20T09:39:56.101Z,100302.78
2022-11-20T09:43:04.891Z,100303.03
2022-11-20T09:46:16.908Z,100301.88
2022-11-20T09:49:32.753Z,100294.63
2022-11-20T09:52:56.222Z,100294.44
2022-11-20T09:56:00.079Z,100294.44
2022-11-20T09:59:07.468Z,100296.75
2022-11-20T10:02:21.097Z,100297.47
2022-11-20T10:05:29.231Z,100295.72
2022-11-20T10:08:43.631Z,100300.94
2022-11-20T10:11:58.449Z,100303.47
2022-11-20T10:15:15.593Z,100299.94
2022-11-20T10:18:36.438Z,100308.41
2022-11-20T10:21:53.367Z,100303.72
2022-11-20T10:25:04.735Z,100301.66
2022-11-20T10:28:37.153Z,100305.97
2022-11-20T10:31:43.089Z,100304.44
2022-11-20T10:34:53.091Z,100305.34
2022-11-20T10:38:00.638Z,100299.00
2022-11-20T10:41:25.104Z,100295.50
2022-11-20T10:44:51.114Z,100288.53
2022-11-20T10:48:06.985Z,100286.69
2022-11-20T10:51:29.417Z,100284.19
2022-11-20T10:54:39.633Z,100286.66
2022-11-20T10:57:56.213Z,100275.44
2022-11-20T11:01:06.448Z,100270.75
2022-11-20T11:04:30.563Z,100274.22
2022-11-20T11:07:40.982Z,100276.63
2022-11-20T11:10:52.807Z,100274.09
2022-11-20T11:14:07.366Z,100279.66
2022-11-20T11:17:27.914Z,100282.34
2022-11-20T11:20:32.698Z,100277.59
2022-11-20T11:23:38.919Z,100277.34
2022-11-20T11:26:41.844Z,100272.00
2022-11-20T11:29:46.320Z,100278.19
2022-11-20T11:32:49.667Z,100285.94
2022-11-20T11:35:57.969Z,100281.13
2022-11-20T11:39:01.086Z,100277.09
2022-11-20T11:42:04.160Z,100281.44
2022-11-20T11:45:15.779Z,100279.47
2022-11-20T11:48:19.243Z,100276.75
2022-11-20T11:51:22.717Z,100281.28
2022-11-20T11:54:30.391Z,100278.44
2022-11-20T11:57:46.315Z,100271.22
2022-11-20T12:00:58.341Z,100270.50
2022-11-20T12:04:07.089Z,100269.00
2022-11-20T12:07:44.695Z,100272.78
2022-11-20T12:10:49.792Z,100267.63
2022-11-20T12:13:57.346Z,100271.97
2022-11-20T12:17:03.474Z,100257.09
2022-11-20T12:20:14.094Z,100246.25
2022-11-20T12:23:28.574Z,100252.38
2022-11-20T12:26:52.934Z,100241.88
2022-11-20T12:30:03.536Z,100232.19
2022-11-20T12:33:35.830Z,100221.94
2022-11-20T12:36:51.538Z,100217.31
2022-11-20T12:40:01.088Z,100222.34
2022-11-20T12:43:48.930Z,100216.44
2022-11-20T12:47:09.629Z,100207.38
2022-11-20T12:50:26.096Z,100205.47
2022-11-20T12:53:36.747Z,100194.84
2022-11-20T12:56:46.745Z,100191.47
2022-11-20T13:00:11.977Z,100190.56
2022-11-20T13:03:36.077Z,100194.28
2022-11-20T13:06:42.592Z,100194.19
2022-11-20T13:09:48.975Z,100203.38
2022-11-20T13:13:01.601Z,100199.09
2022-11-20T13:16:12.456Z,100198.09
2022-11-20T13:19:19.199Z,100203.38
2022-11-20T13:22:28.849Z,100211.84
2022-11-20T13:25:33.548Z,100209.03
2022-11-20T13:28:37.791Z,100203.53
2022-11-20T13:31:46.804Z,100200.06
2022-11-20T13:34:57.303Z,100203.66
2022-11-20T13:38:13.686Z,100192.56
2022-11-20T13:41:32.220Z,100190.06
2022-11-20T13:44:40.591Z,100185.78
2022-11-20T13:47:50.377Z,100184.94
2022-11-20T13:51:12.828Z,100186.09
2022-11-20T13:54:52.876Z,100179.19
2022-11-20T13:58:14.496Z,100187.66
2022-11-20T14:01:22.526Z,100188.00
2022-11-20T14:04:33.330Z,100189.25
2022-11-20T14:07:41.830Z,100191.97
2022-11-20T14:10:46.333Z,100197.75
2022-11-20T14:14:00.668Z,100187.44
2022-11-20T14:17:10.773Z,100186.97
2022-11-20T14:20:19.705Z,100185.88
2022-11-20T14:23:30.218Z,100182.69
2022-11-20T14:26:36.170Z,100173.84
2022-11-20T14:29:41.566Z,100177.31
2022-11-20T14:32:46.320Z,100171.47
2022-11-20T14:35:51.518Z,100177.69
2022-11-20T14:38:55.769Z,100164.94
2022-11-20T14:42:00.376Z,100169.41
2022-11-20T14:45:04.141Z,100171.06
2022-11-20T14:48:07.513Z,100166.13
2022-11-20T14:51:14.441Z,100165.88
2022-11-20T14:54:19.705Z,100171.00
2022-11-20T14:57:27.879Z,100164.47
2022-11-20T15:00:32.221Z,100162.00
2022-11-20T15:03:37.497Z,100168.16
2022-11-20T15:06:52.725Z,100169.84
2022-11-20T15:10:07.687Z,100171.44
2022-11-20T15:13:20.196Z,100165.94
2022-11-20T15:16:26.911Z,100169.03
2022-11-20T15:19:33.085Z,100169.28
2022-11-20T15:22:36.001Z,100165.81
2022-11-20T15:25:43.887Z,100159.81
2022-11-20T15:28:51.486Z,100159.81
2022-11-20T15:31:55.203Z,100171.00
2022-11-20T15:34:58.191Z,100164.22
2022-11-20T15:38:01.586Z,100163.06
2022-11-20T15:41:09.636Z,100171.81
2022-11-20T15:44:17.667Z,100169.91
2022-11-20T15:47:27.330Z,100165.78
2022-11-20T15:50:39.870Z,100168.34
2022-11-20T15:53:45.069Z,100164.78
2022-11-20T15:56:48.639Z,100164.94
2022-11-20T15:59:53.940Z,100158.84
2022-11-20T16:02:56.886Z,100161.47
2022-11-20T16:05:59.928Z,100164.69
2022-11-20T16:09:03.053Z,100159.44
2022-11-20T16:12:06.952Z,100148.25
2022-11-20T16:15:43.862Z,100155.53
2022-11-20T16:18:47.319Z,100145.75
2022-11-20T16:21:50.399Z,100150.47
2022-11-20T16:24:53.913Z,100150.50
2022-11-20T16:27:57.077Z,100151.72
2022-11-20T16:31:13.847Z,100149.25
2022-11-20T16:34:19.541Z,100155.03
2022-11-20T16:37:22.651Z,100160.75
2022-11-20T16:40:29.058Z,100151.38
2022-11-20T16:43:32.154Z,100148.81
2022-11-20T16:46:36.886Z,100149.72
2022-11-20T16:49:39.836Z,100154.06
2022-11-20T16:52:51.980Z,100159.91
2022-11-20T16:55:54.995Z,100164.28
2022-11-20T16:59:00.690Z,100162.53
2022-11-20T17:02:05.239Z,100162.81
2022-11-20T17:05:08.951Z,100164.28
2022-11-20T17:08:12.035Z,100164.53
2022-11-20T17:11:17.467Z,100159.41
2022-11-20T17:14:21.696Z,100159.31
2022-11-20T17:17:28.614Z,100160.22
2022-11-20T17:20:32.822Z,100153.22
2022-11-20T17:23:38.972Z,100161.13
2022-11-20T17:26:44.006Z,100163.09
2022-11-20T17:29:47.092Z,100159.47
2022-11-20T17:32:52.666Z,100153.53
2022-11-20T17:35:58.689Z,100154.25
2022-11-20T17:39:02.593Z,100149.16
2022-11-20T17:42:24.317Z,100151.38
2022-11-20T17:45:30.437Z,100149.56
2022-11-20T17:48:42.316Z,100150.72
2022-11-20T17:51:45.351Z,100140.38
2022-11-20T17:54:48.397Z,100137.66
2022-11-20T17:57:53.175Z,100136.59
2022-11-20T18:00:58.050Z,100131.38
2022-11-20T18:04:03.094Z,100131.31
2022-11-20T18:07:06.215Z,100127.16
2022-11-20T18:10:10.722Z,100122.03
2022-11-20T18:13:14.106Z,100116.19
2022-11-20T18:16:19.995Z,100110.97
2022-11-20T18:19:32.114Z,100105.94
2022-11-20T18:22:36.509Z,100106.06
2022-11-20T18:25:39.837Z,100100.09
2022-11-20T18:28:43.188Z,100101.13
2022-11-20T18:31:46.259Z,100105.69
2022-11-20T18:34:51.859Z,100100.50
2022-11-20T18:37:54.876Z,100102.97
2022-11-20T18:41:03.709Z,100103.63
2022-11-20T18:44:31.375Z,100097.72
2022-11-20T18:47:37.847Z,100101.16
2022-11-20T18:50:42.301Z,100098.69
2022-11-20T18:53:47.519Z,100102.25
2022-11-20T18:56:51.086Z,100105.47
2022-11-20T18:59:54.730Z,100096.72
2022-11-20T19:02:57.731Z,100087.59
2022-11-20T19:06:04.993Z,100090.47
2022-11-20T19:09:11.843Z,100093.22
2022-11-20T19:12:15.127Z,100091.22
2022-11-20T19:15:18.596Z,100092.34
2022-11-20T19:18:23.419Z,100083.75
2022-11-20T19:21:28.334Z,100079.69
2022-11-20T19:24:32.049Z,100092.44
2022-11-20T19:27:38.086Z,100098.63
2022-11-20T19:30:43.522Z,100098.50
2022-11-20T19:33:47.771Z,100093.44
2022-11-20T19:36:54.140Z,100103.44
2022-11-20T19:39:59.585Z,100102.56
2022-11-20T19:43:02.554Z,100101.94
2022-11-20T19:46:05.654Z,100095.63
2022-11-20T19:49:11.728Z,100094.84
2022-11-20T19:52:16.125Z,100094.72
2022-11-20T19:55:19.266Z,100096.94
2022-11-20T19:58:22.345Z,100083.16
2022-11-20T20:01:28.009Z,100080.53
2022-11-20T20:04:31.161Z,100078.75
2022-11-20T20:07:35.559Z,100075.41
2022-11-20T20:10:38.856Z,100072.19
2022-11-20T20:13:42.837Z,100072.91
2022-11-20T20:16:46.016Z,100070.28
2022-11-20T20:19:49.396Z,100070.16
2022-11-20T20:22:53.764Z,100060.06
2022-11-20T20:25:57.049Z,100059.09
2022-11-20T20:29:01.926Z,100061.97
2022-11-20T20:32:06.688Z,100062.72
2022-11-20T20:35:10.508Z,100051.38
2022-11-20T20:38:15.069Z,100053.31
2022-11-20T20:41:20.855Z,100049.31
2022-11-20T20:44:41.306Z,100043.59
2022-11-20T20:47:44.474Z,100047.97
2022-11-20T20:50:55.483Z,100053.34
2022-11-20T20:54:00.297Z,100053.72
2022-11-20T20:57:03.261Z,100048.84
2022-11-20T21:00:09.151Z,100038.81
2022-11-20T21:03:12.344Z,100036.44
2022-11-20T21:06:15.917Z,100033.19
2022-11-20T21:09:23.088Z,100038.47
2022-11-20T21:12:26.308Z,100036.50
2022-11-20T21:15:30.123Z,100035.22
2022-11-20T21:18:34.071Z,100034.41
2022-11-20T21:21:55.309Z,100027.69
2022-11-20T21:24:59.709Z,100023.31
2022-11-20T21:28:02.759Z,100016.28
2022-11-20T21:31:07.749Z,100010.31
2022-11-20T21:34:13.179Z,99997.00
2022-11-20T21:37:16.270Z,100002.19
2022-11-20T21:40:20.866Z,100003.16
2022-11-20T21:43:24.034Z,100003.72
2022-11-20T21:46:27.306Z,99994.28
2022-11-20T21:49:30.285Z,100000.56
2022-11-20T21:52:33.265Z,99993.03
2022-11-20T21:55:37.618Z,99990.38
2022-11-20T21:58:43.711Z,99978.69
2022-11-20T22:01:46.732Z,99980.41
2022-11-20T22:04:50.169Z,99969.47
2022-11-20T22:07:53.154Z,99967.59
2022-11-20T22:11:01.597Z,99967.50
2022-11-20T22:14:23.317Z,99966.22
2022-11-20T22:17:40.985Z,99962.00
2022-11-20T22:20:44.239Z,99964.56
2022-11-20T22:23:47.225Z,99955.38
2022-11-20T22:26:51.708Z,99952.78
2022-11-20T22:29:54.651Z,99955.31
2022-11-20T22:32:57.573Z,99962.28
2022-11-20T22:36:01.911Z,99956.31
2022-11-20T22:39:06.220Z,99958.91
2022-11-20T22:42:10.546Z,99951.41
2022-11-20T22:45:14.196Z,99948.00
2022-11-20T22:48:17.137Z,99948.22
2022-11-20T22:51:23.360Z,99942.56
2022-11-20T22:54:29.005Z,99934.91
2022-11-20T22:57:34.047Z,99929.88
2022-11-20T23:00:40.067Z,99935.66
2022-11-20T23:03:46.224Z,99927.88
2022-11-20T23:06:49.279Z,99912.44
2022-11-20T23:09:52.269Z,99920.00
2022-11-20T23:12:56.710Z,99909.78
2022-11-20T23:16:04.255Z,99911.56
2022-11-20T23:19:10.478Z,99909.03
2022-11-20T23:22:15.616Z,99912.63
2022-11-20T23:25:18.909Z,99910.41
2022-11-20T23:28:23.274Z,99906.13
2022-11-20T23:31:29.684Z,99904.22
2022-11-20T23:34:32.921Z,99896.63
2022-11-20T23:37:36.068Z,99900.78
2022-11-20T23:40:41.369Z,99898.91
2022-11-20T23:43:54.242Z,99889.44
2022-11-20T23:46:59.404Z,99876.47
2022-11-20T23:50:05.902Z,99874.53
2022-11-20T23:53:09.934Z,99873.69
2022-11-20T23:56:16.841Z,99869.63
2022-11-20T23:59:21.151Z,99860.19
